Time;durP1;ratioP1;P1;durP2;ratioP2;P2;SDS_P1;SDS_P2;PMS_P1;PMS_P2;Temp;Humidity;BMP_temperature;BMP_pressure;BME280_temperature;BME280_humidity;BME280_pressure;Samples;Min_cycle;Max_cycle;Signal;HPM_P1;HPM_P2
2021/06/26 00:01:17;;;;;;;12.93;10.97;;;15.90;99.90;;;;;;4974335;28;20627;-96
2021/06/26 00:03:44;;;;;;;12.43;11.57;;;15.90;99.90;;;;;;4973906;28;21882;-96
2021/06/26 00:06:13;;;;;;;11.47;10.53;;;15.90;99.90;;;;;;4974142;28;21015;-95
2021/06/26 00:08:40;;;;;;;13.23;11.90;;;16.00;99.90;;;;;;4973842;28;20672;-94
2021/06/26 00:11:17;;;;;;;13.13;12.03;;;16.00;99.90;;;;;;4970718;28;20641;-93
2021/06/26 00:13:43;;;;;;;12.37;11.20;;;16.00;99.90;;;;;;4973644;28;20657;-93
2021/06/26 00:16:12;;;;;;;11.97;10.97;;;16.00;99.90;;;;;;4972895;28;20736;-94
2021/06/26 00:18:39;;;;;;;11.83;10.93;;;16.10;99.90;;;;;;4966562;28;20721;-93
2021/06/26 00:21:06;;;;;;;12.43;11.60;;;16.00;99.90;;;;;;4984393;28;20699;-93
2021/06/26 00:23:33;;;;;;;13.07;11.97;;;16.00;99.90;;;;;;4985906;28;20659;-93
2021/06/26 00:25:59;;;;;;;13.57;12.43;;;15.90;99.90;;;;;;4973773;28;20726;-94
2021/06/26 00:28:26;;;;;;;12.43;11.53;;;15.90;99.90;;;;;;4967124;28;20640;-94
2021/06/26 00:30:53;;;;;;;11.93;10.83;;;16.00;99.90;;;;;;4967295;28;20626;-94
2021/06/26 00:33:22;;;;;;;15.33;11.30;;;16.00;99.90;;;;;;4971679;28;20749;-94
2021/06/26 00:35:50;;;;;;;12.97;11.97;;;16.00;99.90;;;;;;4968852;28;20618;-94
2021/06/26 00:38:17;;;;;;;13.30;12.17;;;16.00;99.90;;;;;;4970511;28;20712;-95
2021/06/26 00:40:44;;;;;;;18.50;14.07;;;15.90;99.90;;;;;;4969452;28;20663;-95
2021/06/26 00:43:11;;;;;;;12.80;11.80;;;15.90;99.90;;;;;;4969190;28;20685;-94
2021/06/26 00:45:38;;;;;;;13.27;12.07;;;15.90;99.90;;;;;;4975911;28;20633;-95
2021/06/26 00:48:12;;;;;;;13.20;12.00;;;15.90;99.90;;;;;;4970744;28;20628;-95
2021/06/26 00:50:41;;;;;;;12.20;11.10;;;16.00;99.90;;;;;;4966975;28;20665;-95
2021/06/26 00:53:08;;;;;;;12.70;11.60;;;16.00;99.90;;;;;;4972271;28;20680;-95
2021/06/26 00:55:35;;;;;;;12.60;11.57;;;16.00;99.90;;;;;;4968041;28;20638;-95
2021/06/26 00:58:02;;;;;;;13.33;12.27;;;15.90;99.90;;;;;;4971503;28;20632;-95
2021/06/26 01:00:30;;;;;;;13.60;11.77;;;15.90;99.90;;;;;;4971746;28;20684;-95
2021/06/26 01:02:58;;;;;;;11.83;10.73;;;15.90;99.90;;;;;;4970860;28;20761;-95
2021/06/26 01:05:26;;;;;;;12.90;11.87;;;15.90;99.90;;;;;;4966470;28;20629;-95
2021/06/26 01:10:46;;;;;;;13.70;12.30;;;15.90;99.90;;;;;;4970926;28;20659;-95
2021/06/26 01:13:15;;;;;;;12.57;11.37;;;15.90;99.90;;;;;;4966332;28;20672;-95
2021/06/26 01:15:42;;;;;;;13.17;11.87;;;15.90;99.90;;;;;;4973006;28;20670;-95
2021/06/26 01:18:09;;;;;;;12.13;11.23;;;15.80;99.90;;;;;;4966134;28;21236;-94
2021/06/26 01:20:36;;;;;;;12.30;11.30;;;15.80;99.90;;;;;;4972020;28;20621;-96
2021/06/26 01:23:05;;;;;;;12.50;11.30;;;15.80;99.90;;;;;;4964975;28;20676;-94
2021/06/26 01:25:40;;;;;;;14.43;13.13;;;15.80;99.90;;;;;;4967487;28;20657;-93
2021/06/26 01:28:07;;;;;;;13.77;12.60;;;15.80;99.90;;;;;;4972343;28;20657;-93
2021/06/26 01:30:36;;;;;;;15.37;14.23;;;15.90;99.90;;;;;;4971115;28;20980;-94
2021/06/26 01:33:03;;;;;;;13.40;12.40;;;15.90;99.90;;;;;;4967375;28;20636;-94
2021/06/26 01:35:31;;;;;;;14.30;13.10;;;15.90;99.90;;;;;;4968148;28;20728;-93
2021/06/26 01:37:59;;;;;;;14.40;13.17;;;15.90;99.90;;;;;;4971397;28;21215;-91
2021/06/26 01:40:29;;;;;;;15.17;14.07;;;16.00;99.90;;;;;;4969584;28;20666;-93
2021/06/26 01:42:57;;;;;;;15.77;14.20;;;16.00;99.90;;;;;;4964757;28;20646;-94
2021/06/26 01:45:25;;;;;;;14.20;12.90;;;16.10;99.90;;;;;;4970500;28;20645;-93
2021/06/26 01:47:53;;;;;;;15.17;13.87;;;16.00;99.90;;;;;;4967287;28;20717;-94
2021/06/26 01:50:22;;;;;;;14.60;13.40;;;16.00;99.90;;;;;;4968930;28;20677;-92
2021/06/26 01:52:49;;;;;;;14.10;13.00;;;16.00;99.90;;;;;;4965036;28;20656;-93
2021/06/26 01:55:17;;;;;;;14.93;13.37;;;15.90;99.90;;;;;;4965698;28;20718;-93
2021/06/26 01:57:50;;;;;;;14.07;12.67;;;15.90;99.90;;;;;;4967676;28;20636;-93
2021/06/26 02:00:19;;;;;;;14.47;13.07;;;15.90;99.90;;;;;;4965667;28;20709;-93
2021/06/26 02:02:46;;;;;;;14.73;13.47;;;15.80;99.90;;;;;;4966057;28;20668;-92
2021/06/26 02:05:15;;;;;;;14.63;10.80;;;15.80;99.90;;;;;;4963281;28;20740;-93
2021/06/26 02:07:41;;;;;;;13.73;12.57;;;15.80;99.90;;;;;;4967365;28;20646;-92
2021/06/26 02:10:10;;;;;;;11.70;10.60;;;15.80;99.90;;;;;;4969038;28;20760;-94
2021/06/26 02:12:37;;;;;;;11.40;10.40;;;15.90;99.90;;;;;;4971012;28;20671;-93
2021/06/26 02:15:07;;;;;;;12.67;11.50;;;15.90;99.90;;;;;;4970203;28;20645;-93
2021/06/26 02:17:34;;;;;;;14.57;13.10;;;15.90;99.90;;;;;;4971197;28;21329;-93
2021/06/26 02:20:01;;;;;;;13.60;12.37;;;15.80;99.90;;;;;;4968073;28;20625;-92
2021/06/26 02:22:31;;;;;;;15.07;13.87;;;15.90;99.90;;;;;;4970506;28;20653;-92
2021/06/26 02:25:03;;;;;;;14.20;12.60;;;15.80;99.90;;;;;;4969720;28;21212;-92
2021/06/26 02:27:30;;;;;;;14.77;13.53;;;15.80;99.90;;;;;;4969767;28;20697;-91
2021/06/26 02:29:58;;;;;;;12.97;11.87;;;15.80;99.90;;;;;;4971819;28;20657;-91
2021/06/26 02:32:26;;;;;;;14.83;13.27;;;15.80;99.90;;;;;;4971437;28;20663;-93
2021/06/26 02:34:54;;;;;;;14.37;13.17;;;15.90;99.90;;;;;;4987683;28;20613;-92
2021/06/26 02:37:21;;;;;;;13.87;12.77;;;15.90;99.90;;;;;;4987412;28;20633;-93
2021/06/26 02:39:48;;;;;;;14.30;13.30;;;15.90;99.90;;;;;;4973657;28;20626;-94
2021/06/26 02:42:15;;;;;;;14.70;13.50;;;15.80;99.90;;;;;;4968014;28;20657;-94
2021/06/26 02:44:42;;;;;;;15.23;13.80;;;15.80;99.90;;;;;;4962629;28;20653;-93
2021/06/26 02:47:09;;;;;;;14.67;13.43;;;15.80;99.90;;;;;;4961314;28;20640;-93
2021/06/26 02:49:37;;;;;;;15.03;13.63;;;15.80;99.90;;;;;;4967890;28;20676;-92
2021/06/26 02:52:06;;;;;;;15.80;12.83;;;15.80;99.90;;;;;;4969700;28;20669;-92
2021/06/26 02:54:33;;;;;;;16.33;14.67;;;15.80;99.90;;;;;;4968099;28;20641;-93
2021/06/26 02:57:01;;;;;;;14.80;13.50;;;15.70;99.90;;;;;;4971142;28;20645;-93
2021/06/26 02:59:28;;;;;;;14.07;12.57;;;15.60;99.90;;;;;;4968730;28;21577;-92
2021/06/26 03:01:59;;;;;;;15.57;13.97;;;15.60;99.90;;;;;;4969466;28;20660;-94
2021/06/26 03:04:26;;;;;;;14.13;12.93;;;15.60;99.90;;;;;;4966763;28;20672;-93
2021/06/26 03:06:55;;;;;;;13.23;12.13;;;15.50;99.90;;;;;;4965662;28;20618;-92
2021/06/26 03:09:24;;;;;;;13.70;12.30;;;15.50;99.90;;;;;;4963064;28;21443;-93
2021/06/26 03:11:51;;;;;;;17.17;13.27;;;15.50;99.90;;;;;;4967531;28;20739;-93
2021/06/26 03:14:17;;;;;;;14.53;13.33;;;15.50;99.90;;;;;;4971461;28;20637;-93
2021/06/26 03:16:47;;;;;;;15.40;13.93;;;15.40;99.90;;;;;;4970774;28;21399;-92
2021/06/26 03:19:15;;;;;;;16.00;14.47;;;15.40;99.90;;;;;;4966649;28;20652;-92
2021/06/26 03:21:42;;;;;;;15.40;14.00;;;15.40;99.90;;;;;;4968599;28;21024;-93
2021/06/26 03:24:10;;;;;;;15.53;14.33;;;15.40;99.90;;;;;;4967062;28;21139;-93
2021/06/26 03:26:39;;;;;;;14.57;13.13;;;15.40;99.90;;;;;;4969746;28;20614;-92
2021/06/26 03:29:06;;;;;;;15.07;12.93;;;15.50;99.90;;;;;;4966242;28;20997;-93
2021/06/26 03:31:34;;;;;;;15.00;13.40;;;15.50;99.90;;;;;;4962502;28;20668;-93
2021/06/26 03:34:02;;;;;;;14.90;13.50;;;15.50;99.90;;;;;;4968923;28;21231;-92
2021/06/26 03:36:30;;;;;;;15.00;13.80;;;15.30;99.90;;;;;;4967702;28;21503;-93
2021/06/26 03:38:57;;;;;;;14.97;13.53;;;15.40;99.90;;;;;;4964260;28;20733;-93
2021/06/26 03:41:26;;;;;;;16.10;12.60;;;15.40;99.90;;;;;;4963749;28;20633;-94
2021/06/26 03:43:58;;;;;;;15.80;14.17;;;15.40;99.90;;;;;;4965184;28;20642;-94
2021/06/26 03:46:25;;;;;;;15.80;14.33;;;15.40;99.90;;;;;;4975811;28;21306;-93
2021/06/26 03:49:05;;;;;;;18.90;14.30;;;15.40;99.90;;;;;;4964643;28;20648;-94
2021/06/26 03:51:31;;;;;;;16.60;14.90;;;15.40;99.90;;;;;;4969358;28;20680;-93
2021/06/26 03:54:08;;;;;;;14.60;13.37;;;15.30;99.90;;;;;;4968167;28;20636;-93
2021/06/26 03:56:36;;;;;;;15.70;14.30;;;15.30;99.90;;;;;;4966800;28;20629;-93
2021/06/26 03:59:03;;;;;;;15.87;14.27;;;15.20;99.90;;;;;;4964197;28;21189;-96
2021/06/26 04:01:32;;;;;;;12.77;11.57;;;15.20;99.90;;;;;;4961315;28;21024;-95
2021/06/26 04:03:58;;;;;;;13.70;11.50;;;15.20;99.90;;;;;;4967866;28;20661;-95
2021/06/26 04:06:26;;;;;;;17.60;16.00;;;15.20;99.90;;;;;;4972017;28;20636;-96
2021/06/26 04:08:52;;;;;;;15.63;14.10;;;15.20;99.90;;;;;;4973447;28;20625;-96
2021/06/26 04:11:19;;;;;;;14.33;13.03;;;15.10;99.90;;;;;;4971319;28;21245;-96
2021/06/26 04:13:48;;;;;;;18.50;14.30;;;15.00;99.90;;;;;;4973462;28;20752;-92
2021/06/26 04:16:16;;;;;;;13.60;12.50;;;15.10;99.90;;;;;;4971220;28;20659;-92
2021/06/26 04:18:42;;;;;;;14.53;13.23;;;15.10;99.90;;;;;;4966085;28;21299;-93
2021/06/26 04:21:17;;;;;;;15.10;13.70;;;15.10;99.90;;;;;;4965985;28;20625;-92
2021/06/26 04:23:43;;;;;;;16.07;14.67;;;15.10;99.90;;;;;;4968456;28;20642;-92
2021/06/26 04:26:11;;;;;;;16.23;14.63;;;15.10;99.90;;;;;;4973535;28;20613;-91
2021/06/26 04:28:38;;;;;;;17.20;15.80;;;15.00;99.90;;;;;;4963808;28;20623;-92
2021/06/26 04:31:08;;;;;;;15.20;13.70;;;15.00;99.90;;;;;;4971530;28;20660;-92
2021/06/26 04:33:35;;;;;;;15.53;14.13;;;15.10;99.90;;;;;;4973408;28;20661;-92
2021/06/26 04:36:02;;;;;;;17.40;15.83;;;15.10;99.90;;;;;;4971624;28;20633;-94
2021/06/26 04:38:30;;;;;;;17.40;15.80;;;15.20;99.90;;;;;;4968123;28;20709;-92
2021/06/26 04:40:58;;;;;;;17.23;15.60;;;15.20;99.90;;;;;;4964928;28;21254;-92
2021/06/26 04:43:25;;;;;;;17.23;15.67;;;15.30;99.90;;;;;;4980770;28;21220;-93
2021/06/26 04:45:52;;;;;;;17.67;16.07;;;15.30;99.90;;;;;;4968777;28;21461;-92
2021/06/26 04:48:28;;;;;;;16.83;15.43;;;15.40;99.90;;;;;;4960558;28;20652;-93
2021/06/26 04:50:57;;;;;;;13.73;12.30;;;15.50;99.90;;;;;;4977422;28;20668;-93
2021/06/26 04:53:24;;;;;;;15.70;14.03;;;15.60;99.90;;;;;;4985686;28;20649;-92
2021/06/26 04:55:53;;;;;;;13.20;11.90;;;15.60;99.90;;;;;;4982125;28;20636;-93
2021/06/26 04:58:21;;;;;;;17.87;16.30;;;15.60;99.90;;;;;;4972623;28;20658;-92
2021/06/26 05:00:51;;;;;;;17.80;16.20;;;15.70;99.90;;;;;;4967289;28;20650;-93
2021/06/26 05:03:22;;;;;;;18.70;16.50;;;15.70;99.90;;;;;;4969768;28;20633;-93
2021/06/26 05:05:51;;;;;;;18.40;16.50;;;15.70;99.90;;;;;;4966668;28;21003;-92
2021/06/26 05:08:18;;;;;;;19.10;16.83;;;15.70;99.90;;;;;;4968788;28;20639;-92
2021/06/26 05:10:45;;;;;;;18.37;16.83;;;15.80;99.90;;;;;;4971158;28;20657;-92
2021/06/26 05:13:16;;;;;;;17.43;15.83;;;15.80;99.90;;;;;;4970622;28;20636;-93
2021/06/26 05:15:43;;;;;;;16.50;15.10;;;15.90;99.90;;;;;;4970562;28;20647;-93
2021/06/26 05:18:13;;;;;;;15.97;14.37;;;16.00;99.90;;;;;;4970851;28;21177;-92
2021/06/26 05:20:40;;;;;;;17.20;15.80;;;16.10;99.90;;;;;;4970476;28;20625;-95
2021/06/26 05:23:15;;;;;;;17.80;16.30;;;16.30;99.90;;;;;;4970406;28;20661;-95
2021/06/26 05:25:44;;;;;;;14.07;12.77;;;16.30;99.90;;;;;;4971381;28;20763;-96
2021/06/26 05:28:12;;;;;;;13.90;12.47;;;16.40;99.90;;;;;;4967585;28;20781;-95
2021/06/26 05:30:40;;;;;;;14.90;13.40;;;16.50;99.90;;;;;;4973063;28;20665;-95
2021/06/26 05:33:12;;;;;;;13.30;11.97;;;16.50;99.90;;;;;;4973400;28;20736;-96
2021/06/26 05:35:45;;;;;;;14.03;12.73;;;16.50;99.90;;;;;;4971908;28;20665;-96
2021/06/26 05:38:14;;;;;;;18.23;16.57;;;16.60;99.90;;;;;;4973649;28;20669;-96
2021/06/26 05:40:41;;;;;;;17.27;15.87;;;16.60;99.90;;;;;;4987302;28;20632;-93
2021/06/26 05:43:09;;;;;;;18.17;16.77;;;16.90;99.90;;;;;;4975035;28;21523;-94
2021/06/26 05:45:47;;;;;;;17.40;16.00;;;17.00;99.90;;;;;;4974872;28;20728;-95
2021/06/26 05:48:32;;;;;;;18.47;16.80;;;17.10;99.90;;;;;;4972941;28;21179;-95
2021/06/26 05:50:59;;;;;;;15.37;13.87;;;17.10;99.90;;;;;;4965610;28;21199;-95
2021/06/26 05:53:38;;;;;;;16.33;14.40;;;17.20;99.90;;;;;;4966851;28;20670;-95
2021/06/26 05:59:32;;;;;;;14.60;13.30;;;17.50;99.90;;;;;;4973551;28;20599;-93
2021/06/26 06:02:01;;;;;;;19.40;17.80;;;17.50;99.90;;;;;;4971748;28;20732;-93
2021/06/26 06:04:28;;;;;;;17.93;16.33;;;17.70;99.90;;;;;;4968588;28;20628;-91
2021/06/26 06:06:54;;;;;;;17.23;15.77;;;17.90;99.90;;;;;;4967989;28;20634;-92
2021/06/26 06:09:23;;;;;;;17.80;16.20;;;18.00;99.90;;;;;;4971495;28;20629;-92
2021/06/26 06:11:50;;;;;;;18.67;16.93;;;18.00;99.90;;;;;;4972204;28;21407;-91
2021/06/26 06:14:26;;;;;;;18.27;16.77;;;17.80;99.90;;;;;;4961396;28;20634;-90
2021/06/26 06:16:52;;;;;;;18.03;16.40;;;17.90;99.90;;;;;;4974016;28;20703;-90
2021/06/26 06:19:19;;;;;;;18.70;16.97;;;18.10;99.90;;;;;;4975656;28;20613;-90
2021/06/26 06:21:48;;;;;;;17.23;15.67;;;18.20;99.90;;;;;;4985077;28;20643;-90
2021/06/26 06:24:17;;;;;;;19.30;17.70;;;18.30;99.90;;;;;;4991668;28;20639;-90
2021/06/26 06:26:48;;;;;;;18.67;17.07;;;18.50;99.90;;;;;;4988807;28;20625;-91
2021/06/26 06:29:15;;;;;;;17.30;15.80;;;18.50;99.90;;;;;;4985094;28;20873;-89
2021/06/26 06:31:45;;;;;;;17.87;16.43;;;18.60;99.90;;;;;;4988981;28;20943;-92
2021/06/26 06:34:15;;;;;;;16.37;15.17;;;18.80;99.90;;;;;;4987653;28;20653;-91
2021/06/26 06:36:43;;;;;;;15.93;14.43;;;18.80;99.90;;;;;;4982317;28;20713;-92
2021/06/26 06:39:14;;;;;;;15.40;13.90;;;19.00;99.90;;;;;;4983412;28;20638;-92
2021/06/26 06:41:42;;;;;;;14.60;13.20;;;19.00;99.90;;;;;;4992122;28;20641;-92
2021/06/26 06:44:15;;;;;;;17.00;15.23;;;19.00;99.90;;;;;;4990487;28;20633;-91
2021/06/26 06:46:48;;;;;;;18.60;13.80;;;19.10;99.90;;;;;;4985720;28;20626;-92
2021/06/26 06:49:21;;;;;;;14.20;12.90;;;19.20;99.90;;;;;;4984464;28;20613;-92
2021/06/26 06:51:56;;;;;;;15.57;14.03;;;19.20;99.90;;;;;;4988563;28;20740;-93
2021/06/26 06:54:24;;;;;;;14.80;13.60;;;19.20;99.90;;;;;;4975861;28;20613;-91
2021/06/26 06:56:53;;;;;;;16.50;14.07;;;19.30;99.90;;;;;;4974203;28;20638;-90
2021/06/26 06:59:33;;;;;;;16.37;14.73;;;19.40;99.90;;;;;;4973815;28;20649;-90
2021/06/26 07:02:07;;;;;;;14.40;13.20;;;19.30;99.90;;;;;;4970489;28;20642;-91
2021/06/26 07:04:40;;;;;;;15.00;13.80;;;19.40;99.90;;;;;;4966542;28;20932;-91
2021/06/26 07:07:15;;;;;;;15.40;14.30;;;19.50;99.90;;;;;;4978295;28;20647;-91
2021/06/26 07:09:44;;;;;;;12.67;11.53;;;19.60;99.90;;;;;;4982760;28;20642;-90
2021/06/26 07:12:17;;;;;;;15.30;13.80;;;19.90;99.90;;;;;;4977420;28;20653;-90
2021/06/26 07:14:50;;;;;;;12.90;11.90;;;20.10;99.90;;;;;;4974871;28;20636;-91
2021/06/26 07:17:22;;;;;;;13.10;12.00;;;20.00;99.90;;;;;;4980556;28;20666;-89
2021/06/26 07:19:49;;;;;;;12.60;11.27;;;20.20;99.90;;;;;;4981713;28;20669;-88
2021/06/26 07:22:18;;;;;;;14.17;12.97;;;20.10;99.90;;;;;;4980192;28;20622;-91
2021/06/26 07:24:48;;;;;;;12.57;11.43;;;20.40;99.90;;;;;;4978750;28;20722;-91
2021/06/26 07:27:18;;;;;;;13.53;12.53;;;20.30;99.90;;;;;;4975538;28;20606;-91
2021/06/26 07:30:00;;;;;;;12.00;10.90;;;20.50;99.90;;;;;;4983910;28;20842;-91
2021/06/26 07:32:31;;;;;;;12.87;11.73;;;20.60;99.90;;;;;;4984227;28;20689;-89
2021/06/26 07:35:09;;;;;;;12.43;11.33;;;20.70;99.90;;;;;;4991423;28;20724;-90
2021/06/26 07:37:37;;;;;;;12.33;11.30;;;20.80;99.90;;;;;;4968909;28;20716;-90
2021/06/26 07:40:08;;;;;;;12.17;11.27;;;21.00;99.90;;;;;;4970521;28;20660;-90
2021/06/26 07:42:36;;;;;;;12.33;11.33;;;21.10;99.90;;;;;;4975469;28;20634;-89
2021/06/26 07:45:09;;;;;;;11.80;10.80;;;20.90;99.90;;;;;;4967439;28;20649;-90
2021/06/26 07:47:39;;;;;;;10.10;9.30;;;20.60;99.90;;;;;;4977144;28;21044;-89
2021/06/26 07:50:10;;;;;;;12.37;11.47;;;20.80;99.90;;;;;;4975956;28;20741;-90
2021/06/26 07:52:47;;;;;;;9.80;9.00;;;21.00;99.90;;;;;;4979292;28;20746;-89
2021/06/26 07:55:15;;;;;;;9.67;8.87;;;21.00;99.90;;;;;;4992123;28;20621;-89
2021/06/26 07:57:46;;;;;;;12.10;10.87;;;21.20;99.90;;;;;;4978285;28;20643;-90
2021/06/26 08:00:17;;;;;;;9.90;9.10;;;21.50;99.90;;;;;;4975424;28;20701;-92
2021/06/26 08:02:45;;;;;;;10.63;9.73;;;21.80;99.90;;;;;;4977412;28;20737;-91
2021/06/26 08:05:13;;;;;;;9.70;8.80;;;21.70;99.90;;;;;;4972140;28;20640;-90
2021/06/26 08:07:41;;;;;;;9.27;8.60;;;21.70;99.90;;;;;;4966794;28;20626;-91
2021/06/26 08:10:12;;;;;;;9.77;9.07;;;21.80;99.90;;;;;;4967135;28;20637;-92
2021/06/26 08:12:42;;;;;;;9.70;8.70;;;21.90;99.90;;;;;;4961720;28;20654;-90
2021/06/26 08:15:11;;;;;;;9.70;9.00;;;22.00;99.90;;;;;;4969265;28;20628;-91
2021/06/26 08:17:44;;;;;;;9.23;8.43;;;21.90;99.90;;;;;;4963170;28;21527;-92
2021/06/26 08:20:14;;;;;;;8.63;7.93;;;21.80;99.90;;;;;;4964931;28;20724;-91
2021/06/26 08:22:43;;;;;;;9.40;8.57;;;21.90;99.90;;;;;;4969877;28;20622;-92
2021/06/26 08:25:17;;;;;;;8.43;7.73;;;22.00;99.90;;;;;;4967744;28;20705;-92
2021/06/26 08:27:49;;;;;;;8.63;8.03;;;21.90;99.90;;;;;;4968783;28;20682;-92
2021/06/26 08:30:24;;;;;;;8.93;8.13;;;21.80;99.90;;;;;;4965728;28;20641;-92
2021/06/26 08:32:58;;;;;;;9.00;8.10;;;22.00;99.90;;;;;;4970705;28;21104;-91
2021/06/26 08:35:25;;;;;;;8.77;8.03;;;22.10;99.90;;;;;;4972536;28;20667;-90
2021/06/26 08:37:53;;;;;;;8.13;7.53;;;22.20;99.90;;;;;;4967154;28;20631;-91
2021/06/26 08:40:22;;;;;;;8.50;7.80;;;22.40;99.90;;;;;;4971146;28;20636;-91
2021/06/26 08:42:50;;;;;;;7.93;7.43;;;22.50;99.90;;;;;;4967321;28;20654;-90
2021/06/26 08:45:19;;;;;;;7.13;6.63;;;22.70;99.90;;;;;;4965731;28;20669;-92
2021/06/26 08:47:51;;;;;;;9.17;8.37;;;22.90;99.90;;;;;;4961590;28;20634;-92
2021/06/26 08:50:36;;;;;;;7.57;6.97;;;22.60;99.90;;;;;;4963039;28;20623;-92
2021/06/26 08:53:04;;;;;;;8.37;7.57;;;22.70;99.90;;;;;;4968450;28;20666;-90
2021/06/26 08:55:32;;;;;;;7.00;6.50;;;22.70;99.90;;;;;;4954212;28;20665;-90
2021/06/26 08:58:02;;;;;;;8.20;7.50;;;22.20;99.90;;;;;;4969465;28;20633;-91
2021/06/26 09:00:30;;;;;;;7.90;7.30;;;22.50;99.90;;;;;;4967018;28;21027;-91
2021/06/26 09:03:07;;;;;;;7.73;7.03;;;22.70;99.90;;;;;;4968177;28;20634;-91
2021/06/26 09:05:37;;;;;;;7.77;7.23;;;22.60;99.90;;;;;;4969559;28;20641;-91
2021/06/26 09:08:13;;;;;;;7.97;7.47;;;22.60;99.90;;;;;;4971341;28;21140;-91
2021/06/26 09:10:41;;;;;;;7.93;7.40;;;22.70;99.90;;;;;;4970777;28;20999;-91
2021/06/26 09:13:15;;;;;;;8.93;8.23;;;22.50;99.90;;;;;;4967917;28;20687;-92
2021/06/26 09:15:46;;;;;;;8.90;8.23;;;22.40;99.90;;;;;;4968696;28;20998;-92
2021/06/26 09:18:17;;;;;;;7.20;6.70;;;22.60;99.90;;;;;;4962525;28;20642;-92
2021/06/26 09:20:50;;;;;;;7.43;6.73;;;22.40;99.90;;;;;;4968120;28;21363;-90
2021/06/26 09:23:28;;;;;;;8.33;7.73;;;22.30;99.90;;;;;;4968801;28;20696;-93
2021/06/26 09:26:05;;;;;;;7.60;7.00;;;22.60;99.90;;;;;;4969068;28;20629;-91
2021/06/26 09:28:32;;;;;;;7.40;6.90;;;23.00;99.90;;;;;;4960856;28;20634;-90
2021/06/26 09:30:59;;;;;;;7.23;6.73;;;23.30;99.90;;;;;;4964258;28;20636;-90
2021/06/26 09:33:28;;;;;;;7.87;7.27;;;23.40;99.90;;;;;;4963738;28;20684;-91
2021/06/26 09:36:07;;;;;;;7.77;7.27;;;23.20;99.90;;;;;;4964061;28;20641;-91
2021/06/26 09:38:35;;;;;;;7.40;6.90;;;23.30;99.90;;;;;;4966925;28;20620;-91
2021/06/26 09:41:14;;;;;;;8.67;7.87;;;23.50;99.90;;;;;;4963962;28;20629;-91
2021/06/26 09:43:41;;;;;;;7.57;7.07;;;23.40;99.90;;;;;;4961692;28;20760;-91
2021/06/26 09:46:11;;;;;;;7.83;7.20;;;23.00;99.90;;;;;;4966555;28;20638;-93
2021/06/26 09:48:54;;;;;;;8.10;7.50;;;23.10;99.90;;;;;;4963431;28;20617;-92
2021/06/26 09:51:25;;;;;;;8.40;7.80;;;23.10;99.90;;;;;;4962133;28;20631;-92
2021/06/26 09:53:57;;;;;;;8.60;8.00;;;23.40;99.90;;;;;;4962641;28;20657;-91
2021/06/26 09:56:37;;;;;;;7.83;7.23;;;23.90;99.90;;;;;;4968967;28;20625;-92
2021/06/26 09:59:06;;;;;;;8.10;7.60;;;24.20;99.90;;;;;;4965503;28;20626;-91
2021/06/26 10:01:35;;;;;;;7.60;7.10;;;24.40;99.90;;;;;;4963197;28;20630;-91
2021/06/26 10:04:03;;;;;;;8.63;8.00;;;24.80;99.90;;;;;;4965484;28;20653;-92
2021/06/26 10:06:33;;;;;;;7.60;6.70;;;24.30;99.90;;;;;;4967043;28;21154;-91
2021/06/26 10:09:02;;;;;;;8.43;7.83;;;24.00;99.90;;;;;;4963787;28;20583;-92
2021/06/26 10:11:31;;;;;;;8.10;7.60;;;23.80;99.90;;;;;;4965861;28;20716;-92
2021/06/26 10:14:01;;;;;;;8.50;7.90;;;24.30;99.90;;;;;;4968297;28;20672;-92
2021/06/26 10:16:29;;;;;;;6.57;6.17;;;24.40;99.90;;;;;;4966335;28;20994;-92
2021/06/26 10:19:00;;;;;;;7.27;6.77;;;24.50;99.90;;;;;;4965857;28;21614;-91
2021/06/26 10:21:28;;;;;;;6.90;6.50;;;24.40;99.90;;;;;;4963251;28;20629;-92
2021/06/26 10:23:59;;;;;;;7.20;6.70;;;24.10;99.90;;;;;;4964465;28;20688;-91
2021/06/26 10:26:27;;;;;;;6.80;6.30;;;24.00;99.90;;;;;;4965437;28;20650;-92
2021/06/26 10:29:00;;;;;;;7.30;6.80;;;24.40;99.90;;;;;;4964792;28;20678;-89
2021/06/26 10:31:35;;;;;;;7.60;7.00;;;24.60;99.90;;;;;;4973183;28;20633;-96
2021/06/26 11:11:32;;;;;;;5.73;5.33;;;26.20;96.00;;;;;;5299476;23;20675;-96
2021/06/26 11:14:11;;;;;;;5.67;5.33;;;26.60;95.80;;;;;;5219344;23;20774;-96
2021/06/26 11:17:02;;;;;;;5.80;5.50;;;26.60;95.00;;;;;;5035131;23;20676;-96
2021/06/26 11:57:29;;;;;;;5.60;5.20;;;25.60;98.30;;;;;;5945156;23;20581;-96
2021/06/26 12:00:09;;;;;;;6.70;6.20;;;25.60;98.20;;;;;;5013526;23;20673;-96
2021/06/26 12:02:41;;;;;;;7.00;6.50;;;25.40;99.90;;;;;;5017061;23;20657;-95
2021/06/26 12:05:22;;;;;;;6.67;6.17;;;25.40;99.40;;;;;;4980355;28;20650;-96
2021/06/26 12:08:31;;;;;;;6.67;6.07;;;25.70;98.60;;;;;;4980255;28;20685;-96
2021/06/26 12:11:00;;;;;;;6.50;6.10;;;25.40;98.30;;;;;;4966452;28;20697;-96
2021/06/26 12:13:30;;;;;;;7.07;6.40;;;25.80;99.30;;;;;;4983097;23;21205;-96
2021/06/26 12:16:02;;;;;;;6.50;6.10;;;26.00;96.60;;;;;;4963969;28;20630;-95
2021/06/26 12:18:55;;;;;;;6.10;5.50;;;26.70;95.60;;;;;;4961895;28;20738;-96
2021/06/26 12:21:28;;;;;;;6.53;6.13;;;27.30;96.60;;;;;;4961667;28;20721;-96
2021/06/26 12:24:00;;;;;;;7.00;6.50;;;27.50;94.30;;;;;;4950261;29;20735;-96
2021/06/26 12:26:31;;;;;;;6.37;5.97;;;26.80;94.50;;;;;;4955134;29;20719;-96
2021/06/26 12:29:35;;;;;;;6.77;6.37;;;26.70;95.80;;;;;;4956529;29;20697;-96
2021/06/26 12:32:06;;;;;;;9.90;9.10;;;27.50;94.90;;;;;;4958747;29;21021;-96
2021/06/26 12:34:48;;;;;;;5.30;4.80;;;27.70;94.90;;;;;;4953596;29;20643;-96
2021/06/26 12:37:34;;;;;;;5.47;5.17;;;27.60;93.80;;;;;;4958244;29;20629;-96
2021/06/26 12:40:12;;;;;;;6.40;5.90;;;27.50;94.40;;;;;;4941807;29;20668;-96
2021/06/26 12:42:41;;;;;;;5.80;5.40;;;28.20;94.80;;;;;;4944168;29;20666;-96
2021/06/26 12:45:11;;;;;;;5.63;5.23;;;28.80;90.70;;;;;;4945105;29;20715;-96
2021/06/26 12:48:01;;;;;;;4.90;4.60;;;28.60;91.50;;;;;;4944923;29;20652;-96
2021/06/26 12:50:32;;;;;;;4.97;4.57;;;28.40;89.80;;;;;;4941029;29;20697;-96
2021/06/26 12:53:01;;;;;;;5.27;4.97;;;28.10;92.00;;;;;;4940180;29;20707;-96
2021/06/26 12:55:29;;;;;;;4.87;4.57;;;28.50;90.20;;;;;;4939819;29;20741;-96
2021/06/26 12:57:58;;;;;;;4.83;4.43;;;29.40;86.80;;;;;;4941231;29;20635;-96
2021/06/26 13:00:29;;;;;;;4.83;4.50;;;29.00;90.90;;;;;;4937973;29;20634;-96
2021/06/26 13:02:57;;;;;;;5.50;4.90;;;28.90;88.90;;;;;;4943972;29;20658;-96
2021/06/26 13:05:26;;;;;;;5.20;4.80;;;29.00;89.10;;;;;;4942928;28;20641;-96
2021/06/26 13:08:07;;;;;;;4.80;4.50;;;29.40;87.90;;;;;;4929139;29;20631;-96
2021/06/26 13:10:46;;;;;;;4.40;4.20;;;29.50;85.50;;;;;;4929512;29;20631;-95
2021/06/26 13:13:26;;;;;;;4.67;4.27;;;30.00;86.80;;;;;;4929758;29;21255;-96
2021/06/26 13:15:55;;;;;;;4.17;3.87;;;30.90;86.20;;;;;;4931655;29;20628;-96
2021/06/26 13:18:29;;;;;;;4.37;3.97;;;31.60;84.00;;;;;;4926344;29;20742;-95
2021/06/26 13:20:56;;;;;;;4.63;4.23;;;31.50;78.50;;;;;;4931214;29;20639;-95
2021/06/26 13:23:23;;;;;;;4.10;3.90;;;31.30;78.60;;;;;;4941106;29;21396;-96
2021/06/26 13:25:51;;;;;;;4.40;4.10;;;31.10;83.80;;;;;;4930924;29;20646;-96
2021/06/26 13:28:19;;;;;;;5.37;4.97;;;31.00;79.30;;;;;;4929670;29;20685;-96
2021/06/26 13:30:46;;;;;;;5.23;4.93;;;31.50;79.20;;;;;;4935415;29;20732;-95
2021/06/26 13:33:19;;;;;;;5.63;5.17;;;31.00;79.20;;;;;;4929981;29;20680;-95
2021/06/26 13:35:47;;;;;;;5.40;5.10;;;31.00;81.90;;;;;;4927236;29;20740;-96
2021/06/26 13:38:14;;;;;;;4.43;4.13;;;30.80;82.90;;;;;;4935244;29;20650;-96
2021/06/26 13:40:51;;;;;;;4.17;3.87;;;30.00;82.40;;;;;;4939837;29;20651;-96
2021/06/26 13:43:18;;;;;;;4.97;4.57;;;29.50;79.20;;;;;;4935993;29;20686;-96
2021/06/26 13:45:49;;;;;;;3.97;3.67;;;29.50;79.20;;;;;;4934616;29;21155;-96
2021/06/26 13:48:23;;;;;;;5.30;5.00;;;29.40;81.80;;;;;;4937068;29;20634;-96
2021/06/26 13:50:51;;;;;;;5.80;5.40;;;29.10;83.70;;;;;;4931263;29;20635;-96
2021/06/26 13:53:18;;;;;;;5.00;4.60;;;28.70;84.70;;;;;;4940797;28;21245;-95
2021/06/26 13:55:51;;;;;;;4.53;4.23;;;28.30;88.00;;;;;;4939019;28;20635;-96
2021/06/26 13:58:30;;;;;;;5.80;5.40;;;28.40;88.30;;;;;;4945575;29;20670;-96
2021/06/26 14:01:12;;;;;;;4.70;4.30;;;28.80;84.00;;;;;;4938777;29;20634;-96
2021/06/26 14:03:41;;;;;;;5.33;4.93;;;28.90;82.30;;;;;;4960101;28;20631;-96
2021/06/26 14:06:07;;;;;;;4.80;4.47;;;28.30;87.50;;;;;;4961266;28;20688;-96
2021/06/26 14:08:34;;;;;;;5.73;4.83;;;27.80;88.20;;;;;;4960997;28;20699;-96
2021/06/26 14:11:03;;;;;;;4.70;4.40;;;28.00;87.40;;;;;;4958091;28;20623;-96
2021/06/26 14:13:29;;;;;;;4.73;4.33;;;27.60;90.70;;;;;;4956229;28;20687;-96